ADDS METAR Data INFO
IDs: Format: Raw Decoded Include TAF

Data at: 1810 UTC 14 Aug 2018

PATK 141753Z 19005KT 10SM BKN012 OVC021 11/09 A2971 RMK AO2 SLP065 60005 T01110094 10111 20100 52009
PATK 141653Z 17007KT 10SM OVC049 11/09 A2971 RMK AO2 RAB1555E20 SLP062 P0000 T01060089
PATK 141607Z 16005KT 10SM -RA SCT029 BKN040 OVC050 11/09 A2970 RMK AO2 RAB1555 P0000 T01060089
PATK 141553Z AUTO 17005KT 10SM BKN027 BKN034 OVC044 11/09 A2970 RMK AO2 RAE50 SLP058 P0001 T01060089 TSNO
PATK 141453Z AUTO 16005KT 10SM -RA OVC024 10/08 A2969 RMK AO2 SLP055 P0001 60004 T01000083 53004 TSNO
PATK 141416Z AUTO 15003KT 10SM -RA BKN023 BKN029 OVC042 10/08 A2968 RMK AO2 P0001 T01000083 TSNO
PATK 141353Z AUTO 15006KT 9SM -RA SCT025 BKN031 OVC039 10/08 A2968 RMK AO2 SLP053 P0001 T01000083 TSNO
PATK 141335Z AUTO 17006KT 10SM -RA SCT030 BKN039 OVC060 11/08 A2968 RMK AO2 P0000 T01060083 TSNO
PATK 141318Z AUTO 15006KT 10SM -RA BKN029 OVC039 11/08 A2968 RMK AO2 P0000 T01060083 TSNO
PATK 141253Z AUTO 14004KT 10SM -RA FEW025 BKN036 OVC048 11/08 A2968 RMK AO2 SLP052 P0002 T01060083 TSNO
PATK 141240Z AUTO 15005KT 10SM -RA FEW026 BKN038 OVC050 11/09 A2968 RMK AO2 P0001 T01060089 TSNO
PATK 141153Z AUTO 16006KT 10SM -RA BKN027 OVC055 11/09 A2967 RMK AO2 SLP051 P0000 60000 70023 T01060089 10117 20106 51007 TSNO
PATK 141053Z AUTO 16006KT 10SM -RA FEW034 OVC060 11/08 A2967 RMK AO2 RAB13 SLP049 P0000 T01060083 TSNO
PATK 140953Z AUTO VRB03KT 10SM FEW033 OVC055 11/09 A2966 RMK AO2 SLP047 T01060089 TSNO
PATK 140853Z AUTO 14005KT 10SM BKN070 OVC100 11/09 A2965 RMK AO2 SLP044 T01060089 401390106 51009 TSNO
PATK 140753Z AUTO 16005KT 10SM BKN070 OVC090 11/09 A2965 RMK AO2 SLP041 T01110094 TSNO
PATK 140653Z AUTO 15006KT 10SM BKN065 OVC075 11/09 A2964 RMK AO2 SLP038 T01110094 TSNO
PATK 140553Z AUTO 16005KT 10SM OVC060 12/10 A2963 RMK AO2 RAE53 SLP035 P0000 60002 T01170100 10139 20117 53005 TSNO
PATK 140453Z AUTO 14005KT 10SM -RA OVC060 12/10 A2962 RMK AO2 SLP032 P0001 T01170100 TSNO
PATK 140353Z 17007KT 10SM -RA OVC065 13/09 A2961 RMK AO2 SLP030 P0000 T01280094
PATK 140253Z 17008KT 10SM -RA FEW026 OVC060 13/11 A2961 RMK AO2 RAB08E18B45 SLP030 P0000 60001 T01330106 55000
PATK 140153Z 17010KT 10SM FEW029 SCT036 OVC065 14/11 A2961 RMK AO2 RAB38E49 SLP030 P0000 T01390106
PATK 140053Z 18007KT 10SM FEW014 SCT032 OVC042 14/11 A2961 RMK AO2 RAE52 SLP029 P0001 T01390106
PATK 140012Z 19009KT 10SM -RA FEW014 SCT032 OVC042 14/12 A2961 RMK AO2 P0001 T01390117
PATK 140005Z 18006KT 8SM -RA SCT016 BKN027 OVC044 14/12 A2961 RMK AO2 P0001 T01390117
PATK 132353Z 18006KT 10SM -RA FEW014 SCT031 OVC042 14/11 A2961 RMK AO2 SLP030 P0000 60012 T01390111 10139 20122 57003
PATK 132253Z 21005KT 6SM -RA BR SCT021 BKN035 OVC043 13/12 A2962 RMK AO2 SLP032 P0007 T01330117
PATK 132234Z 23003KT 10SM -RA FEW016 SCT029 OVC040 13/12 A2962 RMK AO2 P0003 T01330117
PATK 132213Z 19007KT 5SM -RA BR FEW013 BKN027 OVC050 13/11 A2962 RMK AO2 P0003 T01330111
PATK 132153Z 19005KT 8SM -RA FEW018 BKN030 OVC047 13/12 A2961 RMK AO2 SLP031 P0002 T01330117
PATK 132053Z 19006KT 9SM -RA SCT015 OVC043 13/12 A2962 RMK AO2 SLP033 P0002 60003 T01280117 53004
PATK 131953Z 18006KT 6SM -RA BR SCT012 BKN018 OVC025 13/11 A2962 RMK AO2 SLP032 P0001 T01280111
PATK 131853Z 17006KT 6SM -RA BR BKN022 OVC045 12/11 A2961 RMK AO2 SLP029 P0000 T01220106
PATK 131753Z 17005KT 6SM -RA BR FEW019 OVC025 12/11 A2961 RMK AO2 SLP028 P0001 60009 T01220106 10128 20117 50001
PATK 131653Z 19004KT 4SM -RA BR FEW010 OVC021 12/11 A2961 RMK AO2 SLP029 P0004 T01170106
PATK 131553Z 17007KT 4SM -RA BR FEW010 BKN023 OVC029 12/11 A2961 RMK AO2 SLP029 P0003 T01170106
PATK 131514Z AUTO 17005KT 10SM -RA OVC029 12/11 A2961 RMK AO2 P0000 T01220106 TSNO
PATK 131502Z AUTO 17005KT 10SM -RA OVC030 12/11 A2961 RMK AO2 P0000 T01220106 TSNO
PATK 131453Z AUTO 17004KT 10SM -RA OVC029 12/11 A2960 RMK AO2 SLP027 P0001 60001 T01220106 51000 TSNO
PATK 131353Z AUTO 18007KT 10SM -RA OVC023 12/11 A2960 RMK AO2 RAB1257 SLP026 P0000 T01220106 TSNO
PATK 131253Z AUTO 16006KT 10SM BKN026 OVC030 13/11 A2961 RMK AO2 SLP027 T01280106 TSNO
PATK 131153Z AUTO 17006KT 10SM BKN020 OVC027 13/11 A2960 RMK AO2 SLP026 70051 T01280111 10150 20117 52002 TSNO
PATK 131138Z AUTO 17005KT 10SM BKN020 BKN028 BKN095 13/11 A2960 RMK AO2 T01280111 TSNO
PATK 131053Z AUTO 14006KT 10SM BKN100 13/11 A2959 RMK AO2 SLP023 T01330111 TSNO
PATK 130953Z AUTO 06003KT 10SM BKN090 OVC110 12/12 A2961 RMK AO2 SLP029 T01220117 TSNO
PATK 130853Z AUTO 00000KT 10SM OVC095 13/12 A2960 RMK AO2 SLP025 T01280117 401670117 55001 TSNO
PATK 130753Z AUTO 00000KT 10SM OVC100 13/13 A2960 RMK AO2 SLP025 T01330128 TSNO
PATK 130653Z AUTO 32003KT 10SM FEW065 OVC100 14/13 A2959 RMK AO2 SLP024 T01440128 TSNO